sensor_id;sensor_type;location;lat;lon;timestamp;temperature;humidity
2621;DHT22;1320;48.128;11.592;2022-10-16T00:01:22;16.10;99.90
2621;DHT22;1320;48.128;11.592;2022-10-16T00:03:48;16.00;99.90
2621;DHT22;1320;48.128;11.592;2022-10-16T00:06:16;16.00;99.90
2621;DHT22;1320;48.128;11.592;2022-10-16T00:08:42;16.00;99.90
2621;DHT22;1320;48.128;11.592;2022-10-16T00:11:23;15.90;99.90
2621;DHT22;1320;48.128;11.592;2022-10-16T00:13:50;15.90;99.90
2621;DHT22;1320;48.128;11.592;2022-10-16T00:16:18;15.90;99.90
2621;DHT22;1320;48.128;11.592;2022-10-16T00:18:44;15.90;99.90
2621;DHT22;1320;48.128;11.592;2022-10-16T00:21:17;15.90;99.90
2621;DHT22;1320;48.128;11.592;2022-10-16T00:23:44;15.90;99.90
2621;DHT22;1320;48.128;11.592;2022-10-16T00:26:17;15.80;99.90
2621;DHT22;1320;48.128;11.592;2022-10-16T00:28:44;15.80;99.90
2621;DHT22;1320;48.128;11.592;2022-10-16T00:31:11;15.80;99.90
2621;DHT22;1320;48.128;11.592;2022-10-16T00:33:38;15.80;99.90
2621;DHT22;1320;48.128;11.592;2022-10-16T00:36:06;15.70;99.90
2621;DHT22;1320;48.128;11.592;2022-10-16T00:38:32;15.70;99.90
2621;DHT22;1320;48.128;11.592;2022-10-16T00:40:58;15.70;99.90
2621;DHT22;1320;48.128;11.592;2022-10-16T00:43:46;15.70;99.90
2621;DHT22;1320;48.128;11.592;2022-10-16T00:51:24;15.60;99.90
2621;DHT22;1320;48.128;11.592;2022-10-16T00:53:50;15.60;99.90
2621;DHT22;1320;48.128;11.592;2022-10-16T00:56:16;15.60;99.90
2621;DHT22;1320;48.128;11.592;2022-10-16T00:58:42;15.50;99.90
2621;DHT22;1320;48.128;11.592;2022-10-16T01:01:08;15.50;99.90
2621;DHT22;1320;48.128;11.592;2022-10-16T01:03:36;15.40;99.90
2621;DHT22;1320;48.128;11.592;2022-10-16T01:11:45;15.40;99.90
2621;DHT22;1320;48.128;11.592;2022-10-16T01:14:46;15.40;99.90
2621;DHT22;1320;48.128;11.592;2022-10-16T01:20:29;15.30;99.90
2621;DHT22;1320;48.128;11.592;2022-10-16T01:23:10;15.30;99.90
2621;DHT22;1320;48.128;11.592;2022-10-16T01:28:36;15.20;99.90
2621;DHT22;1320;48.128;11.592;2022-10-16T01:31:03;15.30;99.90
2621;DHT22;1320;48.128;11.592;2022-10-16T01:33:43;15.20;99.90
2621;DHT22;1320;48.128;11.592;2022-10-16T01:36:20;15.20;99.90
2621;DHT22;1320;48.128;11.592;2022-10-16T01:38:49;15.20;99.90
2621;DHT22;1320;48.128;11.592;2022-10-16T01:41:28;15.20;99.90
2621;DHT22;1320;48.128;11.592;2022-10-16T01:44:09;15.20;99.90
2621;DHT22;1320;48.128;11.592;2022-10-16T01:46:39;15.20;99.90
2621;DHT22;1320;48.128;11.592;2022-10-16T01:49:06;15.20;99.90
2621;DHT22;1320;48.128;11.592;2022-10-16T01:51:35;15.20;99.90
2621;DHT22;1320;48.128;11.592;2022-10-16T01:54:02;15.20;99.90
2621;DHT22;1320;48.128;11.592;2022-10-16T01:56:30;15.20;99.90
2621;DHT22;1320;48.128;11.592;2022-10-16T01:59:18;15.20;99.90
2621;DHT22;1320;48.128;11.592;2022-10-16T02:01:48;15.20;99.90
2621;DHT22;1320;48.128;11.592;2022-10-16T02:04:39;15.20;99.90
2621;DHT22;1320;48.128;11.592;2022-10-16T02:07:03;15.20;99.90
2621;DHT22;1320;48.128;11.592;2022-10-16T02:09:30;15.20;99.90
2621;DHT22;1320;48.128;11.592;2022-10-16T02:12:00;15.20;99.90
2621;DHT22;1320;48.128;11.592;2022-10-16T02:14:28;15.10;99.90
2621;DHT22;1320;48.128;11.592;2022-10-16T02:16:54;15.10;99.90
2621;DHT22;1320;48.128;11.592;2022-10-16T02:19:20;15.10;99.90
2621;DHT22;1320;48.128;11.592;2022-10-16T02:21:51;15.00;99.90
2621;DHT22;1320;48.128;11.592;2022-10-16T02:24:27;15.00;99.90
2621;DHT22;1320;48.128;11.592;2022-10-16T02:29:29;15.00;99.90
2621;DHT22;1320;48.128;11.592;2022-10-16T02:32:00;15.00;99.90
2621;DHT22;1320;48.128;11.592;2022-10-16T02:34:27;14.90;99.90
2621;DHT22;1320;48.128;11.592;2022-10-16T02:36:54;14.90;99.90
2621;DHT22;1320;48.128;11.592;2022-10-16T02:39:20;14.90;99.90
2621;DHT22;1320;48.128;11.592;2022-10-16T02:41:47;14.80;99.90
2621;DHT22;1320;48.128;11.592;2022-10-16T02:44:12;14.80;99.90
2621;DHT22;1320;48.128;11.592;2022-10-16T02:46:38;14.90;99.90
2621;DHT22;1320;48.128;11.592;2022-10-16T02:49:04;14.90;99.90
2621;DHT22;1320;48.128;11.592;2022-10-16T02:51:30;14.80;99.90
2621;DHT22;1320;48.128;11.592;2022-10-16T02:53:56;14.80;99.90
2621;DHT22;1320;48.128;11.592;2022-10-16T02:56:21;14.80;99.90
2621;DHT22;1320;48.128;11.592;2022-10-16T02:58:47;14.80;99.90
2621;DHT22;1320;48.128;11.592;2022-10-16T03:01:12;14.80;99.90
2621;DHT22;1320;48.128;11.592;2022-10-16T03:03:39;14.80;99.90
2621;DHT22;1320;48.128;11.592;2022-10-16T03:06:05;14.80;99.90
2621;DHT22;1320;48.128;11.592;2022-10-16T03:08:31;14.80;99.90
2621;DHT22;1320;48.128;11.592;2022-10-16T03:10:57;14.80;99.90
2621;DHT22;1320;48.128;11.592;2022-10-16T03:13:22;14.80;99.90
2621;DHT22;1320;48.128;11.592;2022-10-16T03:15:48;14.80;99.90
2621;DHT22;1320;48.128;11.592;2022-10-16T03:18:14;14.80;99.90
2621;DHT22;1320;48.128;11.592;2022-10-16T03:20:40;14.80;99.90
2621;DHT22;1320;48.128;11.592;2022-10-16T03:23:06;14.80;99.90
2621;DHT22;1320;48.128;11.592;2022-10-16T03:25:33;14.80;99.90
2621;DHT22;1320;48.128;11.592;2022-10-16T03:27:59;14.80;99.90
2621;DHT22;1320;48.128;11.592;2022-10-16T03:30:24;14.80;99.90
2621;DHT22;1320;48.128;11.592;2022-10-16T03:32:50;14.80;99.90
2621;DHT22;1320;48.128;11.592;2022-10-16T03:35:20;14.80;99.90
2621;DHT22;1320;48.128;11.592;2022-10-16T03:37:45;14.80;99.90
2621;DHT22;1320;48.128;11.592;2022-10-16T03:40:11;14.80;99.90
2621;DHT22;1320;48.128;11.592;2022-10-16T03:42:37;14.70;99.90
2621;DHT22;1320;48.128;11.592;2022-10-16T03:45:03;14.70;99.90
2621;DHT22;1320;48.128;11.592;2022-10-16T03:47:29;14.70;99.90
2621;DHT22;1320;48.128;11.592;2022-10-16T03:49:55;14.70;99.90
2621;DHT22;1320;48.128;11.592;2022-10-16T03:52:20;14.70;99.90
2621;DHT22;1320;48.128;11.592;2022-10-16T03:54:46;14.70;99.90
2621;DHT22;1320;48.128;11.592;2022-10-16T03:57:12;14.70;99.90
2621;DHT22;1320;48.128;11.592;2022-10-16T03:59:37;14.70;99.90
2621;DHT22;1320;48.128;11.592;2022-10-16T04:02:03;14.70;99.90
2621;DHT22;1320;48.128;11.592;2022-10-16T04:04:28;14.70;99.90
2621;DHT22;1320;48.128;11.592;2022-10-16T04:06:54;14.80;99.90
2621;DHT22;1320;48.128;11.592;2022-10-16T04:09:20;14.80;99.90
2621;DHT22;1320;48.128;11.592;2022-10-16T04:11:45;14.80;99.90
2621;DHT22;1320;48.128;11.592;2022-10-16T04:14:11;14.80;99.90
2621;DHT22;1320;48.128;11.592;2022-10-16T04:16:36;14.90;99.90
2621;DHT22;1320;48.128;11.592;2022-10-16T04:19:02;14.90;99.90
2621;DHT22;1320;48.128;11.592;2022-10-16T04:21:28;14.90;99.90
2621;DHT22;1320;48.128;11.592;2022-10-16T04:23:54;15.00;99.90
2621;DHT22;1320;48.128;11.592;2022-10-16T04:26:19;15.00;99.90
2621;DHT22;1320;48.128;11.592;2022-10-16T04:28:45;15.00;99.90
2621;DHT22;1320;48.128;11.592;2022-10-16T04:31:11;15.10;99.90
2621;DHT22;1320;48.128;11.592;2022-10-16T04:33:36;15.10;99.90
2621;DHT22;1320;48.128;11.592;2022-10-16T04:36:03;15.20;99.90
2621;DHT22;1320;48.128;11.592;2022-10-16T04:38:29;15.20;99.90
2621;DHT22;1320;48.128;11.592;2022-10-16T04:40:55;15.20;99.90
2621;DHT22;1320;48.128;11.592;2022-10-16T04:43:21;15.20;99.90
2621;DHT22;1320;48.128;11.592;2022-10-16T04:45:47;15.20;99.90
2621;DHT22;1320;48.128;11.592;2022-10-16T04:48:13;15.20;99.90
2621;DHT22;1320;48.128;11.592;2022-10-16T04:50:38;15.20;99.90
2621;DHT22;1320;48.128;11.592;2022-10-16T04:53:05;15.20;99.90
2621;DHT22;1320;48.128;11.592;2022-10-16T04:55:31;15.20;99.90
2621;DHT22;1320;48.128;11.592;2022-10-16T04:57:56;15.20;99.90
2621;DHT22;1320;48.128;11.592;2022-10-16T05:00:22;15.20;99.90
2621;DHT22;1320;48.128;11.592;2022-10-16T05:02:50;15.20;99.90
2621;DHT22;1320;48.128;11.592;2022-10-16T05:05:15;15.20;99.90
2621;DHT22;1320;48.128;11.592;2022-10-16T05:07:41;15.20;99.90
2621;DHT22;1320;48.128;11.592;2022-10-16T05:10:07;15.20;99.90
2621;DHT22;1320;48.128;11.592;2022-10-16T05:12:33;15.30;99.90
2621;DHT22;1320;48.128;11.592;2022-10-16T05:14:58;15.30;99.90
2621;DHT22;1320;48.128;11.592;2022-10-16T05:17:25;15.30;99.90
2621;DHT22;1320;48.128;11.592;2022-10-16T05:19:51;15.30;99.90
2621;DHT22;1320;48.128;11.592;2022-10-16T05:22:17;15.30;99.90
2621;DHT22;1320;48.128;11.592;2022-10-16T05:24:42;15.30;99.90
2621;DHT22;1320;48.128;11.592;2022-10-16T05:27:08;15.30;99.90
2621;DHT22;1320;48.128;11.592;2022-10-16T05:29:34;15.30;99.90
2621;DHT22;1320;48.128;11.592;2022-10-16T05:32:00;15.30;99.90
2621;DHT22;1320;48.128;11.592;2022-10-16T05:34:26;15.30;99.90
2621;DHT22;1320;48.128;11.592;2022-10-16T05:36:51;15.30;99.90
2621;DHT22;1320;48.128;11.592;2022-10-16T05:39:17;15.30;99.90
2621;DHT22;1320;48.128;11.592;2022-10-16T05:41:43;15.30;99.90
2621;DHT22;1320;48.128;11.592;2022-10-16T05:44:09;15.40;99.90
2621;DHT22;1320;48.128;11.592;2022-10-16T05:46:35;15.40;99.90
2621;DHT22;1320;48.128;11.592;2022-10-16T05:49:01;15.40;99.90
2621;DHT22;1320;48.128;11.592;2022-10-16T05:51:27;15.50;99.90
2621;DHT22;1320;48.128;11.592;2022-10-16T05:53:52;15.50;99.90
2621;DHT22;1320;48.128;11.592;2022-10-16T05:56:18;15.50;99.90
2621;DHT22;1320;48.128;11.592;2022-10-16T05:58:44;15.50;99.90
2621;DHT22;1320;48.128;11.592;2022-10-16T06:01:16;15.50;99.90
2621;DHT22;1320;48.128;11.592;2022-10-16T06:03:42;15.50;99.90
2621;DHT22;1320;48.128;11.592;2022-10-16T06:06:12;15.50;99.90
2621;DHT22;1320;48.128;11.592;2022-10-16T06:08:39;15.50;99.90
2621;DHT22;1320;48.128;11.592;2022-10-16T06:11:07;15.50;99.90
2621;DHT22;1320;48.128;11.592;2022-10-16T06:13:33;15.50;99.90
2621;DHT22;1320;48.128;11.592;2022-10-16T06:16:00;15.50;99.90
2621;DHT22;1320;48.128;11.592;2022-10-16T06:18:27;15.60;99.90
2621;DHT22;1320;48.128;11.592;2022-10-16T06:20:54;15.60;99.90
2621;DHT22;1320;48.128;11.592;2022-10-16T06:23:20;15.70;99.90
2621;DHT22;1320;48.128;11.592;2022-10-16T06:25:46;15.70;99.90
2621;DHT22;1320;48.128;11.592;2022-10-16T06:28:12;15.80;99.90
2621;DHT22;1320;48.128;11.592;2022-10-16T06:30:38;15.80;99.90
2621;DHT22;1320;48.128;11.592;2022-10-16T06:33:04;15.80;99.90
2621;DHT22;1320;48.128;11.592;2022-10-16T06:35:29;15.90;99.90
2621;DHT22;1320;48.128;11.592;2022-10-16T06:37:57;15.90;99.90
2621;DHT22;1320;48.128;11.592;2022-10-16T06:40:23;16.00;99.90
2621;DHT22;1320;48.128;11.592;2022-10-16T06:42:48;16.00;99.90
2621;DHT22;1320;48.128;11.592;2022-10-16T06:45:14;16.00;99.90
2621;DHT22;1320;48.128;11.592;2022-10-16T06:47:40;16.00;99.90
2621;DHT22;1320;48.128;11.592;2022-10-16T06:50:06;16.00;99.90
2621;DHT22;1320;48.128;11.592;2022-10-16T06:52:33;16.10;99.90
2621;DHT22;1320;48.128;11.592;2022-10-16T06:54:59;16.10;99.90
2621;DHT22;1320;48.128;11.592;2022-10-16T06:57:25;16.10;99.90
2621;DHT22;1320;48.128;11.592;2022-10-16T06:59:51;16.10;99.90
2621;DHT22;1320;48.128;11.592;2022-10-16T07:02:17;16.10;99.90
2621;DHT22;1320;48.128;11.592;2022-10-16T07:04:42;16.20;99.90
2621;DHT22;1320;48.128;11.592;2022-10-16T07:07:08;16.20;99.90
2621;DHT22;1320;48.128;11.592;2022-10-16T07:09:34;16.30;99.90
2621;DHT22;1320;48.128;11.592;2022-10-16T07:11:59;16.40;99.90
2621;DHT22;1320;48.128;11.592;2022-10-16T07:14:25;16.40;99.90
2621;DHT22;1320;48.128;11.592;2022-10-16T07:16:50;16.40;99.90
2621;DHT22;1320;48.128;11.592;2022-10-16T07:19:16;16.50;99.90
2621;DHT22;1320;48.128;11.592;2022-10-16T07:21:43;16.50;99.90
2621;DHT22;1320;48.128;11.592;2022-10-16T07:24:14;16.60;99.90
2621;DHT22;1320;48.128;11.592;2022-10-16T07:26:42;16.70;99.90
2621;DHT22;1320;48.128;11.592;2022-10-16T07:29:16;16.90;99.90
2621;DHT22;1320;48.128;11.592;2022-10-16T07:31:43;17.00;99.90
2621;DHT22;1320;48.128;11.592;2022-10-16T07:34:09;17.10;99.90
2621;DHT22;1320;48.128;11.592;2022-10-16T07:36:35;17.30;99.90
2621;DHT22;1320;48.128;11.592;2022-10-16T07:39:01;17.40;99.90
2621;DHT22;1320;48.128;11.592;2022-10-16T07:41:27;17.50;99.90
2621;DHT22;1320;48.128;11.592;2022-10-16T07:43:53;17.70;99.90
2621;DHT22;1320;48.128;11.592;2022-10-16T07:46:21;17.80;99.90
2621;DHT22;1320;48.128;11.592;2022-10-16T07:48:47;18.00;99.90
2621;DHT22;1320;48.128;11.592;2022-10-16T07:51:18;18.20;99.90
2621;DHT22;1320;48.128;11.592;2022-10-16T07:53:44;18.40;99.90
2621;DHT22;1320;48.128;11.592;2022-10-16T07:56:10;18.70;99.90
2621;DHT22;1320;48.128;11.592;2022-10-16T07:58:37;19.00;99.90
2621;DHT22;1320;48.128;11.592;2022-10-16T08:01:11;19.30;99.90
2621;DHT22;1320;48.128;11.592;2022-10-16T08:03:37;19.50;99.90
2621;DHT22;1320;48.128;11.592;2022-10-16T08:06:04;19.60;99.90
2621;DHT22;1320;48.128;11.592;2022-10-16T08:08:30;19.70;99.90
2621;DHT22;1320;48.128;11.592;2022-10-16T08:10:56;19.80;99.90
2621;DHT22;1320;48.128;11.592;2022-10-16T08:13:21;20.00;99.90
2621;DHT22;1320;48.128;11.592;2022-10-16T08:15:47;20.20;99.90
2621;DHT22;1320;48.128;11.592;2022-10-16T08:18:15;20.40;99.90
2621;DHT22;1320;48.128;11.592;2022-10-16T08:20:42;20.60;99.90
2621;DHT22;1320;48.128;11.592;2022-10-16T08:23:10;20.80;99.90
2621;DHT22;1320;48.128;11.592;2022-10-16T08:25:37;21.10;99.90
2621;DHT22;1320;48.128;11.592;2022-10-16T08:28:07;21.40;99.90
2621;DHT22;1320;48.128;11.592;2022-10-16T08:30:33;21.60;99.90
2621;DHT22;1320;48.128;11.592;2022-10-16T08:32:59;21.90;99.90
2621;DHT22;1320;48.128;11.592;2022-10-16T08:35:25;22.20;99.90
2621;DHT22;1320;48.128;11.592;2022-10-16T08:37:51;22.50;99.90
2621;DHT22;1320;48.128;11.592;2022-10-16T08:40:23;22.70;99.90
2621;DHT22;1320;48.128;11.592;2022-10-16T08:48:51;24.40;99.90
2621;DHT22;1320;48.128;11.592;2022-10-16T08:51:35;25.10;99.90
2621;DHT22;1320;48.128;11.592;2022-10-16T08:54:02;25.60;99.90
2621;DHT22;1320;48.128;11.592;2022-10-16T08:56:28;26.10;99.90
2621;DHT22;1320;48.128;11.592;2022-10-16T08:58:54;26.50;99.90
2621;DHT22;1320;48.128;11.592;2022-10-16T09:06:50;27.40;99.90
2621;DHT22;1320;48.128;11.592;2022-10-16T09:09:41;27.70;99.00
2621;DHT22;1320;48.128;11.592;2022-10-16T09:15:39;28.20;98.20
2621;DHT22;1320;48.128;11.592;2022-10-16T09:18:16;28.40;98.20
2621;DHT22;1320;48.128;11.592;2022-10-16T09:20:49;28.60;98.40
2621;DHT22;1320;48.128;11.592;2022-10-16T09:23:19;28.90;97.90
2621;DHT22;1320;48.128;11.592;2022-10-16T09:25:47;29.30;95.90
2621;DHT22;1320;48.128;11.592;2022-10-16T09:28:15;29.30;96.50
2621;DHT22;1320;48.128;11.592;2022-10-16T09:30:42;29.40;95.40
2621;DHT22;1320;48.128;11.592;2022-10-16T09:33:10;29.60;94.90
2621;DHT22;1320;48.128;11.592;2022-10-16T09:35:46;29.60;95.40
2621;DHT22;1320;48.128;11.592;2022-10-16T09:38:34;29.90;94.50
2621;DHT22;1320;48.128;11.592;2022-10-16T09:41:13;30.30;94.00
2621;DHT22;1320;48.128;11.592;2022-10-16T09:43:52;30.60;92.80
2621;DHT22;1320;48.128;11.592;2022-10-16T09:46:24;30.70;92.40
2621;DHT22;1320;48.128;11.592;2022-10-16T09:48:51;30.80;91.70
2621;DHT22;1320;48.128;11.592;2022-10-16T09:51:30;30.80;91.80
2621;DHT22;1320;48.128;11.592;2022-10-16T09:56:29;31.10;91.60
2621;DHT22;1320;48.128;11.592;2022-10-16T09:58:57;31.20;91.20
2621;DHT22;1320;48.128;11.592;2022-10-16T10:01:37;31.50;90.20
2621;DHT22;1320;48.128;11.592;2022-10-16T10:04:04;31.50;90.90
2621;DHT22;1320;48.128;11.592;2022-10-16T10:09:29;31.50;87.80
2621;DHT22;1320;48.128;11.592;2022-10-16T10:11:57;31.40;87.10
2621;DHT22;1320;48.128;11.592;2022-10-16T10:16:52;31.20;86.60
2621;DHT22;1320;48.128;11.592;2022-10-16T10:19:23;31.40;86.20
2621;DHT22;1320;48.128;11.592;2022-10-16T10:21:50;31.30;84.80
2621;DHT22;1320;48.128;11.592;2022-10-16T10:24:18;31.20;84.80
2621;DHT22;1320;48.128;11.592;2022-10-16T10:29:53;31.10;85.60
2621;DHT22;1320;48.128;11.592;2022-10-16T10:38:39;31.30;83.10
2621;DHT22;1320;48.128;11.592;2022-10-16T10:46:38;31.10;81.90
2621;DHT22;1320;48.128;11.592;2022-10-16T11:05:43;31.10;82.00
2621;DHT22;1320;48.128;11.592;2022-10-16T11:08:19;31.00;81.60
2621;DHT22;1320;48.128;11.592;2022-10-16T11:10:58;31.00;81.60
2621;DHT22;1320;48.128;11.592;2022-10-16T11:16:32;30.80;80.10
2621;DHT22;1320;48.128;11.592;2022-10-16T11:19:19;30.80;82.70
2621;DHT22;1320;48.128;11.592;2022-10-16T11:30:25;30.10;82.50
2621;DHT22;1320;48.128;11.592;2022-10-16T11:36:03;30.20;80.80
2621;DHT22;1320;48.128;11.592;2022-10-16T11:41:38;30.10;83.30
2621;DHT22;1320;48.128;11.592;2022-10-16T11:49:47;30.10;78.50
2621;DHT22;1320;48.128;11.592;2022-10-16T11:55:03;30.10;75.00
2621;DHT22;1320;48.128;11.592;2022-10-16T11:57:35;30.10;75.20
2621;DHT22;1320;48.128;11.592;2022-10-16T12:08:01;30.30;74.30
2621;DHT22;1320;48.128;11.592;2022-10-16T12:10:30;30.30;73.50
2621;DHT22;1320;48.128;11.592;2022-10-16T12:13:25;30.40;73.80
2621;DHT22;1320;48.128;11.592;2022-10-16T12:15:47;30.50;75.70
2621;DHT22;1320;48.128;11.592;2022-10-16T12:18:24;30.70;73.30
2621;DHT22;1320;48.128;11.592;2022-10-16T12:20:57;30.80;77.20
2621;DHT22;1320;48.128;11.592;2022-10-16T12:23:26;30.80;75.60
2621;DHT22;1320;48.128;11.592;2022-10-16T12:25:59;30.80;74.70
2621;DHT22;1320;48.128;11.592;2022-10-16T12:28:30;30.80;74.40
2621;DHT22;1320;48.128;11.592;2022-10-16T12:31:05;30.70;74.20
2621;DHT22;1320;48.128;11.592;2022-10-16T12:33:37;30.70;73.30
2621;DHT22;1320;48.128;11.592;2022-10-16T12:38:50;30.80;73.90
2621;DHT22;1320;48.128;11.592;2022-10-16T12:41:31;30.80;74.30
2621;DHT22;1320;48.128;11.592;2022-10-16T12:43:59;30.90;73.80
2621;DHT22;1320;48.128;11.592;2022-10-16T12:51:54;31.30;73.20
2621;DHT22;1320;48.128;11.592;2022-10-16T12:54:31;31.60;71.90
2621;DHT22;1320;48.128;11.592;2022-10-16T13:00:24;31.90;70.80
2621;DHT22;1320;48.128;11.592;2022-10-16T13:16:35;32.40;70.20
2621;DHT22;1320;48.128;11.592;2022-10-16T13:19:19;32.40;69.70
2621;DHT22;1320;48.128;11.592;2022-10-16T13:22:05;32.50;69.60
2621;DHT22;1320;48.128;11.592;2022-10-16T13:30:24;32.80;70.50
2621;DHT22;1320;48.128;11.592;2022-10-16T13:33:04;32.90;69.30
2621;DHT22;1320;48.128;11.592;2022-10-16T13:35:33;32.90;67.90
2621;DHT22;1320;48.128;11.592;2022-10-16T13:38:13;33.00;69.40
2621;DHT22;1320;48.128;11.592;2022-10-16T13:41:04;33.00;68.20
2621;DHT22;1320;48.128;11.592;2022-10-16T13:43:43;33.10;68.50
2621;DHT22;1320;48.128;11.592;2022-10-16T13:46:17;33.20;68.00
2621;DHT22;1320;48.128;11.592;2022-10-16T13:48:55;33.20;68.30
2621;DHT22;1320;48.128;11.592;2022-10-16T13:51:22;33.40;67.80
2621;DHT22;1320;48.128;11.592;2022-10-16T13:53:47;33.50;68.50
2621;DHT22;1320;48.128;11.592;2022-10-16T13:56:18;33.60;67.70
2621;DHT22;1320;48.128;11.592;2022-10-16T14:01:43;33.70;67.70
2621;DHT22;1320;48.128;11.592;2022-10-16T14:04:11;33.80;65.80
2621;DHT22;1320;48.128;11.592;2022-10-16T14:06:41;34.10;65.20
2621;DHT22;1320;48.128;11.592;2022-10-16T14:09:20;34.30;65.10
2621;DHT22;1320;48.128;11.592;2022-10-16T14:11:55;34.50;65.60
2621;DHT22;1320;48.128;11.592;2022-10-16T14:14:22;34.70;65.00
2621;DHT22;1320;48.128;11.592;2022-10-16T14:16:48;34.80;64.00
2621;DHT22;1320;48.128;11.592;2022-10-16T14:19:23;35.10;64.30
2621;DHT22;1320;48.128;11.592;2022-10-16T14:21:53;35.20;64.50
2621;DHT22;1320;48.128;11.592;2022-10-16T14:24:31;35.40;63.50
2621;DHT22;1320;48.128;11.592;2022-10-16T14:26:58;35.70;64.00
2621;DHT22;1320;48.128;11.592;2022-10-16T14:29:25;35.90;61.20
2621;DHT22;1320;48.128;11.592;2022-10-16T14:34:33;36.30;60.90
2621;DHT22;1320;48.128;11.592;2022-10-16T14:37:19;36.40;60.40
2621;DHT22;1320;48.128;11.592;2022-10-16T14:39:51;36.50;59.00
2621;DHT22;1320;48.128;11.592;2022-10-16T14:42:18;36.60;59.50
2621;DHT22;1320;48.128;11.592;2022-10-16T14:44:46;36.50;59.40
2621;DHT22;1320;48.128;11.592;2022-10-16T14:47:21;36.50;58.70
2621;DHT22;1320;48.128;11.592;2022-10-16T14:49:50;36.50;58.40
2621;DHT22;1320;48.128;11.592;2022-10-16T14:52:16;36.30;58.60
2621;DHT22;1320;48.128;11.592;2022-10-16T14:54:42;35.90;58.50
2621;DHT22;1320;48.128;11.592;2022-10-16T14:57:26;35.50;59.30
2621;DHT22;1320;48.128;11.592;2022-10-16T14:59:53;34.90;59.30
2621;DHT22;1320;48.128;11.592;2022-10-16T15:02:35;34.30;60.30
2621;DHT22;1320;48.128;11.592;2022-10-16T15:05:23;33.70;61.00
2621;DHT22;1320;48.128;11.592;2022-10-16T15:07:50;33.10;62.40
2621;DHT22;1320;48.128;11.592;2022-10-16T15:10:17;32.60;63.20
2621;DHT22;1320;48.128;11.592;2022-10-16T15:12:43;32.00;63.90
2621;DHT22;1320;48.128;11.592;2022-10-16T15:15:26;31.60;64.70
2621;DHT22;1320;48.128;11.592;2022-10-16T15:17:55;31.10;65.90
2621;DHT22;1320;48.128;11.592;2022-10-16T15:20:28;30.80;67.40
2621;DHT22;1320;48.128;11.592;2022-10-16T15:22:56;30.40;67.90
2621;DHT22;1320;48.128;11.592;2022-10-16T15:25:32;30.10;69.20
2621;DHT22;1320;48.128;11.592;2022-10-16T15:28:00;29.70;70.40
2621;DHT22;1320;48.128;11.592;2022-10-16T15:30:27;29.40;71.50
2621;DHT22;1320;48.128;11.592;2022-10-16T15:32:52;29.10;72.30
2621;DHT22;1320;48.128;11.592;2022-10-16T15:35:18;28.80;73.20
2621;DHT22;1320;48.128;11.592;2022-10-16T15:37:46;28.60;75.20
2621;DHT22;1320;48.128;11.592;2022-10-16T15:40:12;28.30;76.50
2621;DHT22;1320;48.128;11.592;2022-10-16T15:42:38;28.10;76.60
2621;DHT22;1320;48.128;11.592;2022-10-16T15:45:04;27.80;77.50
2621;DHT22;1320;48.128;11.592;2022-10-16T15:47:31;27.60;78.30
2621;DHT22;1320;48.128;11.592;2022-10-16T15:49:57;27.30;79.80
2621;DHT22;1320;48.128;11.592;2022-10-16T15:52:22;27.10;80.50
2621;DHT22;1320;48.128;11.592;2022-10-16T15:54:48;26.90;81.10
2621;DHT22;1320;48.128;11.592;2022-10-16T15:57:14;26.80;82.10
2621;DHT22;1320;48.128;11.592;2022-10-16T15:59:39;26.60;82.70
2621;DHT22;1320;48.128;11.592;2022-10-16T16:02:05;26.50;83.60
2621;DHT22;1320;48.128;11.592;2022-10-16T16:04:31;26.30;84.10
2621;DHT22;1320;48.128;11.592;2022-10-16T16:06:57;26.20;84.90
2621;DHT22;1320;48.128;11.592;2022-10-16T16:09:23;26.00;85.60
2621;DHT22;1320;48.128;11.592;2022-10-16T16:11:49;25.90;86.20
2621;DHT22;1320;48.128;11.592;2022-10-16T16:14:16;25.80;86.70
2621;DHT22;1320;48.128;11.592;2022-10-16T16:16:42;25.70;87.40
2621;DHT22;1320;48.128;11.592;2022-10-16T16:19:08;25.50;87.70
2621;DHT22;1320;48.128;11.592;2022-10-16T16:21:34;25.40;88.30
2621;DHT22;1320;48.128;11.592;2022-10-16T16:24:00;25.30;88.80
2621;DHT22;1320;48.128;11.592;2022-10-16T16:26:30;25.20;89.60
2621;DHT22;1320;48.128;11.592;2022-10-16T16:29:02;25.10;90.00
2621;DHT22;1320;48.128;11.592;2022-10-16T16:31:29;24.90;90.20
2621;DHT22;1320;48.128;11.592;2022-10-16T16:33:55;24.80;90.60
2621;DHT22;1320;48.128;11.592;2022-10-16T16:36:22;24.70;90.90
2621;DHT22;1320;48.128;11.592;2022-10-16T16:38:48;24.60;91.20
2621;DHT22;1320;48.128;11.592;2022-10-16T16:41:15;24.50;91.40
2621;DHT22;1320;48.128;11.592;2022-10-16T16:43:41;24.40;91.60
2621;DHT22;1320;48.128;11.592;2022-10-16T16:46:07;24.30;91.90
2621;DHT22;1320;48.128;11.592;2022-10-16T16:48:33;24.20;92.00
2621;DHT22;1320;48.128;11.592;2022-10-16T16:51:18;24.10;92.10
2621;DHT22;1320;48.128;11.592;2022-10-16T16:53:50;24.00;92.50
2621;DHT22;1320;48.128;11.592;2022-10-16T16:56:17;23.90;92.50
2621;DHT22;1320;48.128;11.592;2022-10-16T16:58:47;23.90;92.70
2621;DHT22;1320;48.128;11.592;2022-10-16T17:01:13;23.80;92.80
2621;DHT22;1320;48.128;11.592;2022-10-16T17:03:42;23.80;92.90
2621;DHT22;1320;48.128;11.592;2022-10-16T17:06:11;23.70;93.10
2621;DHT22;1320;48.128;11.592;2022-10-16T17:08:38;23.70;93.20
2621;DHT22;1320;48.128;11.592;2022-10-16T17:11:05;23.60;93.40
2621;DHT22;1320;48.128;11.592;2022-10-16T17:13:34;23.60;93.40
2621;DHT22;1320;48.128;11.592;2022-10-16T17:16:04;23.50;93.60
2621;DHT22;1320;48.128;11.592;2022-10-16T17:18:30;23.50;93.80
2621;DHT22;1320;48.128;11.592;2022-10-16T17:21:01;23.40;93.90
2621;DHT22;1320;48.128;11.592;2022-10-16T17:23:27;23.30;94.00
2621;DHT22;1320;48.128;11.592;2022-10-16T17:25:53;23.30;94.20
2621;DHT22;1320;48.128;11.592;2022-10-16T17:28:19;23.20;94.30
2621;DHT22;1320;48.128;11.592;2022-10-16T17:30:44;23.20;94.50
2621;DHT22;1320;48.128;11.592;2022-10-16T17:33:11;23.10;94.60
2621;DHT22;1320;48.128;11.592;2022-10-16T17:35:38;23.00;94.80
2621;DHT22;1320;48.128;11.592;2022-10-16T17:38:04;23.00;95.10
2621;DHT22;1320;48.128;11.592;2022-10-16T17:40:30;22.90;95.20
2621;DHT22;1320;48.128;11.592;2022-10-16T17:42:56;22.80;95.40
2621;DHT22;1320;48.128;11.592;2022-10-16T17:45:22;22.80;95.50
2621;DHT22;1320;48.128;11.592;2022-10-16T17:47:48;22.70;95.70
2621;DHT22;1320;48.128;11.592;2022-10-16T17:50:13;22.70;95.90
2621;DHT22;1320;48.128;11.592;2022-10-16T17:52:39;22.60;96.20
2621;DHT22;1320;48.128;11.592;2022-10-16T17:55:05;22.60;96.30
2621;DHT22;1320;48.128;11.592;2022-10-16T17:57:31;22.50;96.50
2621;DHT22;1320;48.128;11.592;2022-10-16T17:59:57;22.40;96.80
2621;DHT22;1320;48.128;11.592;2022-10-16T18:02:23;22.30;97.00
2621;DHT22;1320;48.128;11.592;2022-10-16T18:04:49;22.30;97.20
2621;DHT22;1320;48.128;11.592;2022-10-16T18:07:16;22.20;97.40
2621;DHT22;1320;48.128;11.592;2022-10-16T18:09:41;22.10;97.50
2621;DHT22;1320;48.128;11.592;2022-10-16T18:12:07;22.10;97.70
2621;DHT22;1320;48.128;11.592;2022-10-16T18:14:33;22.10;97.90
2621;DHT22;1320;48.128;11.592;2022-10-16T18:16:59;22.10;98.10
2621;DHT22;1320;48.128;11.592;2022-10-16T18:19:26;22.10;98.20